sensor_id;sensor_type;location;lat;lon;timestamp;P1;durP1;ratioP1;P2;durP2;ratioP2
10880;SDS011;5493;48.884;8.338;2024-02-16T00:00:02;4.13;;;1.30;;
10880;SDS011;5493;48.884;8.338;2024-02-16T00:02:29;2.23;;;1.60;;
10880;SDS011;5493;48.884;8.338;2024-02-16T00:04:57;4.80;;;1.90;;
10880;SDS011;5493;48.884;8.338;2024-02-16T00:07:24;2.37;;;1.80;;
10880;SDS011;5493;48.884;8.338;2024-02-16T00:09:50;2.20;;;1.53;;
10880;SDS011;5493;48.884;8.338;2024-02-16T00:12:17;4.40;;;1.37;;
10880;SDS011;5493;48.884;8.338;2024-02-16T00:14:44;3.57;;;1.70;;
10880;SDS011;5493;48.884;8.338;2024-02-16T00:17:11;5.07;;;1.30;;
10880;SDS011;5493;48.884;8.338;2024-02-16T00:19:38;2.90;;;1.70;;
10880;SDS011;5493;48.884;8.338;2024-02-16T00:22:05;5.63;;;1.10;;
10880;SDS011;5493;48.884;8.338;2024-02-16T00:24:32;2.20;;;1.23;;
10880;SDS011;5493;48.884;8.338;2024-02-16T00:26:59;3.57;;;1.60;;
10880;SDS011;5493;48.884;8.338;2024-02-16T00:29:25;3.90;;;1.60;;
10880;SDS011;5493;48.884;8.338;2024-02-16T00:31:53;3.83;;;1.70;;
10880;SDS011;5493;48.884;8.338;2024-02-16T00:34:20;1.87;;;1.67;;
10880;SDS011;5493;48.884;8.338;2024-02-16T00:36:47;2.03;;;1.30;;
10880;SDS011;5493;48.884;8.338;2024-02-16T00:39:13;2.00;;;1.40;;
10880;SDS011;5493;48.884;8.338;2024-02-16T00:41:40;2.27;;;1.40;;
10880;SDS011;5493;48.884;8.338;2024-02-16T00:44:06;1.60;;;1.30;;
10880;SDS011;5493;48.884;8.338;2024-02-16T00:46:33;2.60;;;1.50;;
10880;SDS011;5493;48.884;8.338;2024-02-16T00:49:03;1.73;;;1.53;;
10880;SDS011;5493;48.884;8.338;2024-02-16T00:51:29;4.90;;;1.60;;
10880;SDS011;5493;48.884;8.338;2024-02-16T00:53:56;1.97;;;1.47;;
10880;SDS011;5493;48.884;8.338;2024-02-16T00:56:22;2.13;;;1.50;;
10880;SDS011;5493;48.884;8.338;2024-02-16T00:58:49;4.13;;;1.60;;
10880;SDS011;5493;48.884;8.338;2024-02-16T01:01:16;2.60;;;1.60;;
10880;SDS011;5493;48.884;8.338;2024-02-16T01:03:42;1.30;;;0.97;;
10880;SDS011;5493;48.884;8.338;2024-02-16T01:06:10;4.23;;;1.50;;
10880;SDS011;5493;48.884;8.338;2024-02-16T01:08:37;1.60;;;1.30;;
10880;SDS011;5493;48.884;8.338;2024-02-16T01:11:03;2.43;;;1.20;;
10880;SDS011;5493;48.884;8.338;2024-02-16T01:13:30;1.20;;;0.97;;
10880;SDS011;5493;48.884;8.338;2024-02-16T01:15:57;1.03;;;1.00;;
10880;SDS011;5493;48.884;8.338;2024-02-16T01:18:24;1.93;;;1.27;;
10880;SDS011;5493;48.884;8.338;2024-02-16T01:20:51;2.00;;;1.40;;
10880;SDS011;5493;48.884;8.338;2024-02-16T01:23:19;2.17;;;1.40;;
10880;SDS011;5493;48.884;8.338;2024-02-16T01:25:46;1.67;;;1.30;;
10880;SDS011;5493;48.884;8.338;2024-02-16T01:28:13;3.83;;;1.20;;
10880;SDS011;5493;48.884;8.338;2024-02-16T01:30:39;6.90;;;1.53;;
10880;SDS011;5493;48.884;8.338;2024-02-16T01:33:06;1.30;;;1.20;;
10880;SDS011;5493;48.884;8.338;2024-02-16T01:35:33;3.13;;;1.33;;
10880;SDS011;5493;48.884;8.338;2024-02-16T01:37:59;2.27;;;1.30;;
10880;SDS011;5493;48.884;8.338;2024-02-16T01:40:28;3.70;;;1.40;;
10880;SDS011;5493;48.884;8.338;2024-02-16T01:42:55;2.83;;;1.23;;
10880;SDS011;5493;48.884;8.338;2024-02-16T01:45:21;3.93;;;1.37;;
10880;SDS011;5493;48.884;8.338;2024-02-16T01:47:49;3.13;;;1.43;;
10880;SDS011;5493;48.884;8.338;2024-02-16T01:50:17;2.33;;;1.50;;
10880;SDS011;5493;48.884;8.338;2024-02-16T01:52:44;3.60;;;1.40;;
10880;SDS011;5493;48.884;8.338;2024-02-16T01:55:12;2.10;;;1.57;;
10880;SDS011;5493;48.884;8.338;2024-02-16T01:57:42;2.50;;;1.20;;
10880;SDS011;5493;48.884;8.338;2024-02-16T02:00:10;3.10;;;1.43;;
10880;SDS011;5493;48.884;8.338;2024-02-16T02:02:40;1.87;;;1.53;;
10880;SDS011;5493;48.884;8.338;2024-02-16T02:05:06;3.97;;;1.50;;
10880;SDS011;5493;48.884;8.338;2024-02-16T02:07:33;3.97;;;1.50;;
10880;SDS011;5493;48.884;8.338;2024-02-16T02:10:00;1.50;;;1.03;;
10880;SDS011;5493;48.884;8.338;2024-02-16T02:12:26;2.93;;;1.30;;
10880;SDS011;5493;48.884;8.338;2024-02-16T02:14:54;2.47;;;1.60;;
10880;SDS011;5493;48.884;8.338;2024-02-16T02:17:21;2.03;;;1.37;;
10880;SDS011;5493;48.884;8.338;2024-02-16T02:19:48;2.33;;;1.60;;
10880;SDS011;5493;48.884;8.338;2024-02-16T02:22:16;1.87;;;1.50;;
10880;SDS011;5493;48.884;8.338;2024-02-16T02:24:43;2.07;;;1.43;;
10880;SDS011;5493;48.884;8.338;2024-02-16T02:27:10;2.63;;;1.50;;
10880;SDS011;5493;48.884;8.338;2024-02-16T02:29:38;2.20;;;1.37;;
10880;SDS011;5493;48.884;8.338;2024-02-16T02:32:05;2.13;;;1.33;;
10880;SDS011;5493;48.884;8.338;2024-02-16T02:34:32;5.70;;;1.30;;
10880;SDS011;5493;48.884;8.338;2024-02-16T02:36:59;2.13;;;1.40;;
10880;SDS011;5493;48.884;8.338;2024-02-16T02:39:27;2.33;;;1.43;;
10880;SDS011;5493;48.884;8.338;2024-02-16T02:41:53;3.03;;;1.40;;
10880;SDS011;5493;48.884;8.338;2024-02-16T02:44:20;5.27;;;1.40;;
10880;SDS011;5493;48.884;8.338;2024-02-16T02:46:46;2.37;;;1.40;;
10880;SDS011;5493;48.884;8.338;2024-02-16T02:49:13;1.70;;;1.40;;
10880;SDS011;5493;48.884;8.338;2024-02-16T02:51:39;4.10;;;1.43;;
10880;SDS011;5493;48.884;8.338;2024-02-16T02:54:06;2.77;;;1.80;;
10880;SDS011;5493;48.884;8.338;2024-02-16T02:56:34;1.93;;;1.43;;
10880;SDS011;5493;48.884;8.338;2024-02-16T02:59:00;3.83;;;1.57;;
10880;SDS011;5493;48.884;8.338;2024-02-16T03:01:27;2.10;;;1.43;;
10880;SDS011;5493;48.884;8.338;2024-02-16T03:03:54;2.27;;;1.37;;
10880;SDS011;5493;48.884;8.338;2024-02-16T03:06:20;2.00;;;1.40;;
10880;SDS011;5493;48.884;8.338;2024-02-16T03:08:48;3.50;;;1.63;;
10880;SDS011;5493;48.884;8.338;2024-02-16T03:11:15;1.97;;;1.57;;
10880;SDS011;5493;48.884;8.338;2024-02-16T03:13:43;3.83;;;1.60;;
10880;SDS011;5493;48.884;8.338;2024-02-16T03:16:09;1.50;;;1.30;;
10880;SDS011;5493;48.884;8.338;2024-02-16T03:18:36;3.27;;;1.80;;
10880;SDS011;5493;48.884;8.338;2024-02-16T03:21:03;3.53;;;1.63;;
10880;SDS011;5493;48.884;8.338;2024-02-16T03:23:30;2.97;;;1.60;;
10880;SDS011;5493;48.884;8.338;2024-02-16T03:25:57;3.73;;;1.60;;
10880;SDS011;5493;48.884;8.338;2024-02-16T03:28:23;1.97;;;1.47;;
10880;SDS011;5493;48.884;8.338;2024-02-16T03:30:51;3.80;;;1.60;;
10880;SDS011;5493;48.884;8.338;2024-02-16T03:33:18;6.40;;;1.57;;
10880;SDS011;5493;48.884;8.338;2024-02-16T03:35:46;2.27;;;1.50;;
10880;SDS011;5493;48.884;8.338;2024-02-16T03:38:13;1.87;;;1.37;;
10880;SDS011;5493;48.884;8.338;2024-02-16T03:40:40;1.83;;;1.27;;
10880;SDS011;5493;48.884;8.338;2024-02-16T03:43:06;2.63;;;1.50;;
10880;SDS011;5493;48.884;8.338;2024-02-16T03:45:33;3.03;;;1.37;;
10880;SDS011;5493;48.884;8.338;2024-02-16T03:48:01;2.30;;;1.40;;
10880;SDS011;5493;48.884;8.338;2024-02-16T03:50:27;1.70;;;1.33;;
10880;SDS011;5493;48.884;8.338;2024-02-16T03:52:54;2.43;;;1.43;;
10880;SDS011;5493;48.884;8.338;2024-02-16T03:55:20;2.50;;;1.67;;
10880;SDS011;5493;48.884;8.338;2024-02-16T03:57:47;1.97;;;1.40;;
10880;SDS011;5493;48.884;8.338;2024-02-16T04:00:13;3.77;;;1.70;;
10880;SDS011;5493;48.884;8.338;2024-02-16T04:02:40;1.30;;;1.10;;
10880;SDS011;5493;48.884;8.338;2024-02-16T04:05:08;2.90;;;1.50;;
10880;SDS011;5493;48.884;8.338;2024-02-16T04:07:35;4.40;;;1.20;;
10880;SDS011;5493;48.884;8.338;2024-02-16T04:10:02;2.00;;;1.57;;
10880;SDS011;5493;48.884;8.338;2024-02-16T04:12:29;3.57;;;1.60;;
10880;SDS011;5493;48.884;8.338;2024-02-16T04:14:55;2.63;;;1.50;;
10880;SDS011;5493;48.884;8.338;2024-02-16T04:17:22;1.83;;;1.40;;
10880;SDS011;5493;48.884;8.338;2024-02-16T04:19:48;3.90;;;1.47;;
10880;SDS011;5493;48.884;8.338;2024-02-16T04:22:16;2.23;;;1.40;;
10880;SDS011;5493;48.884;8.338;2024-02-16T04:24:43;2.93;;;1.60;;
10880;SDS011;5493;48.884;8.338;2024-02-16T04:27:09;4.47;;;1.13;;
10880;SDS011;5493;48.884;8.338;2024-02-16T04:29:36;6.47;;;1.50;;
10880;SDS011;5493;48.884;8.338;2024-02-16T04:32:02;2.77;;;1.37;;
10880;SDS011;5493;48.884;8.338;2024-02-16T04:34:29;2.97;;;1.33;;
10880;SDS011;5493;48.884;8.338;2024-02-16T04:36:56;2.60;;;1.80;;
10880;SDS011;5493;48.884;8.338;2024-02-16T04:39:23;3.97;;;1.70;;
10880;SDS011;5493;48.884;8.338;2024-02-16T04:41:50;4.20;;;1.70;;
10880;SDS011;5493;48.884;8.338;2024-02-16T04:44:18;2.20;;;1.60;;
10880;SDS011;5493;48.884;8.338;2024-02-16T04:46:44;1.97;;;1.60;;
10880;SDS011;5493;48.884;8.338;2024-02-16T04:49:11;2.43;;;1.83;;
10880;SDS011;5493;48.884;8.338;2024-02-16T04:51:37;2.23;;;1.73;;
10880;SDS011;5493;48.884;8.338;2024-02-16T04:54:05;3.50;;;2.20;;
10880;SDS011;5493;48.884;8.338;2024-02-16T04:56:33;2.77;;;2.00;;
10880;SDS011;5493;48.884;8.338;2024-02-16T04:58:59;1.80;;;1.50;;
10880;SDS011;5493;48.884;8.338;2024-02-16T05:01:26;2.73;;;1.80;;
10880;SDS011;5493;48.884;8.338;2024-02-16T05:03:54;3.33;;;1.93;;
10880;SDS011;5493;48.884;8.338;2024-02-16T05:06:21;2.57;;;2.00;;
10880;SDS011;5493;48.884;8.338;2024-02-16T05:08:48;3.17;;;2.30;;
10880;SDS011;5493;48.884;8.338;2024-02-16T05:11:15;3.30;;;1.60;;
10880;SDS011;5493;48.884;8.338;2024-02-16T05:13:43;3.37;;;1.70;;
10880;SDS011;5493;48.884;8.338;2024-02-16T05:16:09;4.20;;;3.20;;
10880;SDS011;5493;48.884;8.338;2024-02-16T05:18:36;5.47;;;3.47;;
10880;SDS011;5493;48.884;8.338;2024-02-16T05:21:03;2.87;;;2.13;;
10880;SDS011;5493;48.884;8.338;2024-02-16T05:23:30;3.13;;;1.93;;
10880;SDS011;5493;48.884;8.338;2024-02-16T05:25:57;2.30;;;1.70;;
10880;SDS011;5493;48.884;8.338;2024-02-16T05:28:23;2.80;;;1.80;;
10880;SDS011;5493;48.884;8.338;2024-02-16T05:30:51;1.73;;;1.60;;
10880;SDS011;5493;48.884;8.338;2024-02-16T05:33:18;3.87;;;1.90;;
10880;SDS011;5493;48.884;8.338;2024-02-16T05:35:44;2.83;;;1.77;;
10880;SDS011;5493;48.884;8.338;2024-02-16T05:38:16;3.43;;;2.00;;
10880;SDS011;5493;48.884;8.338;2024-02-16T05:40:57;2.27;;;1.70;;
10880;SDS011;5493;48.884;8.338;2024-02-16T05:43:23;2.63;;;1.53;;
10880;SDS011;5493;48.884;8.338;2024-02-16T05:45:51;3.30;;;1.60;;
10880;SDS011;5493;48.884;8.338;2024-02-16T05:48:18;2.53;;;1.67;;
10880;SDS011;5493;48.884;8.338;2024-02-16T05:50:44;3.03;;;1.50;;
10880;SDS011;5493;48.884;8.338;2024-02-16T05:53:11;2.93;;;1.30;;
10880;SDS011;5493;48.884;8.338;2024-02-16T05:55:37;3.40;;;1.80;;
10880;SDS011;5493;48.884;8.338;2024-02-16T05:58:04;4.17;;;1.80;;
10880;SDS011;5493;48.884;8.338;2024-02-16T06:00:31;3.03;;;1.80;;
10880;SDS011;5493;48.884;8.338;2024-02-16T06:03:00;4.87;;;1.70;;
10880;SDS011;5493;48.884;8.338;2024-02-16T06:05:27;2.33;;;1.70;;
10880;SDS011;5493;48.884;8.338;2024-02-16T06:07:54;4.40;;;2.47;;
10880;SDS011;5493;48.884;8.338;2024-02-16T06:10:21;4.50;;;2.50;;
10880;SDS011;5493;48.884;8.338;2024-02-16T06:12:48;2.93;;;2.50;;
10880;SDS011;5493;48.884;8.338;2024-02-16T06:15:14;4.77;;;2.70;;
10880;SDS011;5493;48.884;8.338;2024-02-16T06:17:41;4.00;;;2.30;;
10880;SDS011;5493;48.884;8.338;2024-02-16T06:20:10;2.63;;;2.00;;
10880;SDS011;5493;48.884;8.338;2024-02-16T06:22:36;3.67;;;2.37;;
10880;SDS011;5493;48.884;8.338;2024-02-16T06:25:03;2.60;;;1.80;;
10880;SDS011;5493;48.884;8.338;2024-02-16T06:27:30;2.33;;;1.53;;
10880;SDS011;5493;48.884;8.338;2024-02-16T06:29:57;2.77;;;1.70;;
10880;SDS011;5493;48.884;8.338;2024-02-16T06:32:24;3.63;;;1.70;;
10880;SDS011;5493;48.884;8.338;2024-02-16T06:34:51;2.63;;;1.67;;
10880;SDS011;5493;48.884;8.338;2024-02-16T06:37:19;3.50;;;1.80;;
10880;SDS011;5493;48.884;8.338;2024-02-16T06:39:46;2.60;;;1.87;;
10880;SDS011;5493;48.884;8.338;2024-02-16T06:42:12;3.57;;;1.83;;
10880;SDS011;5493;48.884;8.338;2024-02-16T06:44:39;3.07;;;1.70;;
10880;SDS011;5493;48.884;8.338;2024-02-16T06:47:05;2.47;;;1.93;;
10880;SDS011;5493;48.884;8.338;2024-02-16T06:49:32;2.97;;;1.90;;
10880;SDS011;5493;48.884;8.338;2024-02-16T06:51:59;2.80;;;2.03;;
10880;SDS011;5493;48.884;8.338;2024-02-16T06:54:27;6.90;;;2.37;;
10880;SDS011;5493;48.884;8.338;2024-02-16T06:56:53;3.30;;;2.40;;
10880;SDS011;5493;48.884;8.338;2024-02-16T06:59:20;5.33;;;2.60;;
10880;SDS011;5493;48.884;8.338;2024-02-16T07:01:46;6.00;;;3.37;;
10880;SDS011;5493;48.884;8.338;2024-02-16T07:04:13;5.70;;;3.53;;
10880;SDS011;5493;48.884;8.338;2024-02-16T07:06:39;5.70;;;4.40;;
10880;SDS011;5493;48.884;8.338;2024-02-16T07:09:06;7.00;;;4.80;;
10880;SDS011;5493;48.884;8.338;2024-02-16T07:11:34;6.03;;;4.23;;
10880;SDS011;5493;48.884;8.338;2024-02-16T07:14:00;6.57;;;4.00;;
10880;SDS011;5493;48.884;8.338;2024-02-16T07:16:27;7.10;;;3.90;;
10880;SDS011;5493;48.884;8.338;2024-02-16T07:18:54;5.50;;;3.67;;
10880;SDS011;5493;48.884;8.338;2024-02-16T07:21:20;4.57;;;3.60;;
10880;SDS011;5493;48.884;8.338;2024-02-16T07:23:48;6.50;;;3.50;;
10880;SDS011;5493;48.884;8.338;2024-02-16T07:26:14;4.73;;;3.20;;
10880;SDS011;5493;48.884;8.338;2024-02-16T07:28:44;5.40;;;3.70;;
10880;SDS011;5493;48.884;8.338;2024-02-16T07:31:10;5.97;;;3.10;;
10880;SDS011;5493;48.884;8.338;2024-02-16T07:33:39;4.57;;;3.10;;
10880;SDS011;5493;48.884;8.338;2024-02-16T07:36:06;6.20;;;3.40;;
10880;SDS011;5493;48.884;8.338;2024-02-16T07:38:33;7.83;;;5.20;;
10880;SDS011;5493;48.884;8.338;2024-02-16T07:40:59;12.20;;;7.47;;
10880;SDS011;5493;48.884;8.338;2024-02-16T07:43:27;10.97;;;7.10;;
10880;SDS011;5493;48.884;8.338;2024-02-16T07:45:55;10.57;;;5.30;;
10880;SDS011;5493;48.884;8.338;2024-02-16T07:48:22;7.40;;;4.43;;
10880;SDS011;5493;48.884;8.338;2024-02-16T07:50:48;11.03;;;7.07;;
10880;SDS011;5493;48.884;8.338;2024-02-16T07:53:16;10.10;;;6.80;;
10880;SDS011;5493;48.884;8.338;2024-02-16T07:55:42;9.60;;;5.17;;
10880;SDS011;5493;48.884;8.338;2024-02-16T07:58:09;10.30;;;5.07;;
10880;SDS011;5493;48.884;8.338;2024-02-16T08:00:35;6.07;;;4.00;;
10880;SDS011;5493;48.884;8.338;2024-02-16T08:03:02;5.90;;;3.47;;
10880;SDS011;5493;48.884;8.338;2024-02-16T08:05:29;4.70;;;3.00;;
10880;SDS011;5493;48.884;8.338;2024-02-16T08:07:55;5.70;;;3.93;;
10880;SDS011;5493;48.884;8.338;2024-02-16T08:10:22;6.77;;;4.20;;
10880;SDS011;5493;48.884;8.338;2024-02-16T08:12:50;3.43;;;2.70;;
10880;SDS011;5493;48.884;8.338;2024-02-16T08:15:17;4.47;;;2.57;;
10880;SDS011;5493;48.884;8.338;2024-02-16T08:17:48;3.83;;;2.60;;
10880;SDS011;5493;48.884;8.338;2024-02-16T08:20:16;6.07;;;3.73;;
10880;SDS011;5493;48.884;8.338;2024-02-16T08:22:42;4.17;;;3.10;;
10880;SDS011;5493;48.884;8.338;2024-02-16T08:25:09;9.33;;;5.27;;
10880;SDS011;5493;48.884;8.338;2024-02-16T08:27:35;4.83;;;3.60;;
10880;SDS011;5493;48.884;8.338;2024-02-16T08:30:03;6.30;;;3.40;;
10880;SDS011;5493;48.884;8.338;2024-02-16T08:32:30;5.70;;;3.27;;
10880;SDS011;5493;48.884;8.338;2024-02-16T08:34:57;5.83;;;3.40;;
10880;SDS011;5493;48.884;8.338;2024-02-16T08:37:25;6.27;;;3.00;;
10880;SDS011;5493;48.884;8.338;2024-02-16T08:39:52;4.50;;;3.10;;
10880;SDS011;5493;48.884;8.338;2024-02-16T08:42:19;6.30;;;4.27;;
10880;SDS011;5493;48.884;8.338;2024-02-16T08:44:47;10.00;;;4.30;;
10880;SDS011;5493;48.884;8.338;2024-02-16T08:47:14;6.93;;;4.27;;
10880;SDS011;5493;48.884;8.338;2024-02-16T08:49:41;9.20;;;4.93;;
10880;SDS011;5493;48.884;8.338;2024-02-16T08:52:08;9.30;;;5.10;;
10880;SDS011;5493;48.884;8.338;2024-02-16T08:54:36;8.60;;;4.90;;
10880;SDS011;5493;48.884;8.338;2024-02-16T08:57:03;9.87;;;4.50;;
10880;SDS011;5493;48.884;8.338;2024-02-16T08:59:30;6.43;;;4.17;;
10880;SDS011;5493;48.884;8.338;2024-02-16T09:01:58;15.90;;;7.93;;
10880;SDS011;5493;48.884;8.338;2024-02-16T09:04:25;15.83;;;8.73;;
10880;SDS011;5493;48.884;8.338;2024-02-16T09:06:51;18.47;;;9.87;;
10880;SDS011;5493;48.884;8.338;2024-02-16T09:09:18;11.50;;;7.70;;
10880;SDS011;5493;48.884;8.338;2024-02-16T09:11:46;11.63;;;6.80;;
10880;SDS011;5493;48.884;8.338;2024-02-16T09:14:13;10.53;;;7.03;;
10880;SDS011;5493;48.884;8.338;2024-02-16T09:16:39;11.57;;;6.67;;
10880;SDS011;5493;48.884;8.338;2024-02-16T09:19:06;6.97;;;5.33;;
10880;SDS011;5493;48.884;8.338;2024-02-16T09:21:33;7.53;;;5.73;;
10880;SDS011;5493;48.884;8.338;2024-02-16T09:23:59;6.50;;;4.53;;
10880;SDS011;5493;48.884;8.338;2024-02-16T09:26:28;9.13;;;4.77;;
10880;SDS011;5493;48.884;8.338;2024-02-16T09:28:59;4.97;;;3.37;;
10880;SDS011;5493;48.884;8.338;2024-02-16T09:31:26;4.37;;;2.90;;
10880;SDS011;5493;48.884;8.338;2024-02-16T09:33:52;6.93;;;3.37;;
10880;SDS011;5493;48.884;8.338;2024-02-16T09:36:19;10.80;;;5.87;;
10880;SDS011;5493;48.884;8.338;2024-02-16T09:38:46;13.20;;;6.70;;
10880;SDS011;5493;48.884;8.338;2024-02-16T09:41:12;10.93;;;6.37;;
10880;SDS011;5493;48.884;8.338;2024-02-16T09:43:40;10.67;;;6.20;;
10880;SDS011;5493;48.884;8.338;2024-02-16T09:46:08;10.03;;;6.70;;
10880;SDS011;5493;48.884;8.338;2024-02-16T09:48:35;11.33;;;5.80;;
10880;SDS011;5493;48.884;8.338;2024-02-16T09:51:04;6.73;;;3.80;;
10880;SDS011;5493;48.884;8.338;2024-02-16T09:53:31;6.27;;;3.50;;
10880;SDS011;5493;48.884;8.338;2024-02-16T09:55:57;3.90;;;2.93;;
10880;SDS011;5493;48.884;8.338;2024-02-16T09:58:24;4.27;;;2.70;;
10880;SDS011;5493;48.884;8.338;2024-02-16T10:00:50;4.50;;;2.40;;
10880;SDS011;5493;48.884;8.338;2024-02-16T10:03:23;3.83;;;2.70;;
10880;SDS011;5493;48.884;8.338;2024-02-16T10:05:50;5.37;;;2.70;;
10880;SDS011;5493;48.884;8.338;2024-02-16T10:08:17;3.70;;;2.10;;
10880;SDS011;5493;48.884;8.338;2024-02-16T10:10:44;3.07;;;2.70;;
10880;SDS011;5493;48.884;8.338;2024-02-16T10:13:10;4.53;;;2.30;;
10880;SDS011;5493;48.884;8.338;2024-02-16T10:15:37;4.90;;;2.33;;
10880;SDS011;5493;48.884;8.338;2024-02-16T10:18:04;5.20;;;2.57;;
10880;SDS011;5493;48.884;8.338;2024-02-16T10:20:34;3.77;;;2.50;;
10880;SDS011;5493;48.884;8.338;2024-02-16T10:23:02;3.93;;;2.40;;
10880;SDS011;5493;48.884;8.338;2024-02-16T10:25:30;2.70;;;2.13;;
10880;SDS011;5493;48.884;8.338;2024-02-16T10:27:57;4.13;;;2.30;;
10880;SDS011;5493;48.884;8.338;2024-02-16T10:30:24;3.90;;;2.50;;
10880;SDS011;5493;48.884;8.338;2024-02-16T10:32:55;8.43;;;2.67;;
10880;SDS011;5493;48.884;8.338;2024-02-16T10:35:23;4.30;;;2.73;;
10880;SDS011;5493;48.884;8.338;2024-02-16T10:37:52;3.87;;;2.20;;
10880;SDS011;5493;48.884;8.338;2024-02-16T10:40:21;6.77;;;2.57;;
10880;SDS011;5493;48.884;8.338;2024-02-16T10:42:49;4.37;;;2.40;;
10880;SDS011;5493;48.884;8.338;2024-02-16T10:45:16;4.00;;;2.33;;
10880;SDS011;5493;48.884;8.338;2024-02-16T10:47:43;4.37;;;2.43;;
10880;SDS011;5493;48.884;8.338;2024-02-16T10:50:10;4.60;;;1.98;;
10880;SDS011;5493;48.884;8.338;2024-02-16T10:52:37;3.97;;;2.20;;
10880;SDS011;5493;48.884;8.338;2024-02-16T10:55:08;4.57;;;2.50;;
10880;SDS011;5493;48.884;8.338;2024-02-16T10:57:36;4.00;;;2.30;;
10880;SDS011;5493;48.884;8.338;2024-02-16T11:00:07;3.10;;;1.80;;
10880;SDS011;5493;48.884;8.338;2024-02-16T11:02:50;5.63;;;2.20;;
10880;SDS011;5493;48.884;8.338;2024-02-16T11:05:18;2.17;;;1.50;;
10880;SDS011;5493;48.884;8.338;2024-02-16T11:07:44;4.23;;;2.00;;
10880;SDS011;5493;48.884;8.338;2024-02-16T11:10:13;4.35;;;2.22;;
10880;SDS011;5493;48.884;8.338;2024-02-16T11:12:42;7.15;;;2.25;;
10880;SDS011;5493;48.884;8.338;2024-02-16T11:15:11;3.45;;;1.65;;
10880;SDS011;5493;48.884;8.338;2024-02-16T11:17:39;3.38;;;1.92;;
10880;SDS011;5493;48.884;8.338;2024-02-16T11:20:06;3.33;;;1.70;;
10880;SDS011;5493;48.884;8.338;2024-02-16T11:22:33;2.28;;;1.70;;
10880;SDS011;5493;48.884;8.338;2024-02-16T11:25:04;2.25;;;1.25;;
10880;SDS011;5493;48.884;8.338;2024-02-16T11:27:34;4.15;;;1.48;;
10880;SDS011;5493;48.884;8.338;2024-02-16T11:30:01;3.63;;;1.75;;
10880;SDS011;5493;48.884;8.338;2024-02-16T11:32:32;3.05;;;1.67;;
10880;SDS011;5493;48.884;8.338;2024-02-16T11:35:04;2.33;;;1.45;;
10880;SDS011;5493;48.884;8.338;2024-02-16T11:37:32;5.43;;;1.90;;
10880;SDS011;5493;48.884;8.338;2024-02-16T11:39:59;3.92;;;1.50;;
10880;SDS011;5493;48.884;8.338;2024-02-16T11:42:25;2.13;;;1.40;;
10880;SDS011;5493;48.884;8.338;2024-02-16T11:44:54;4.10;;;1.85;;
10880;SDS011;5493;48.884;8.338;2024-02-16T11:47:21;3.60;;;2.17;;
10880;SDS011;5493;48.884;8.338;2024-02-16T11:49:59;3.55;;;1.80;;
10880;SDS011;5493;48.884;8.338;2024-02-16T11:52:26;2.95;;;1.65;;
10880;SDS011;5493;48.884;8.338;2024-02-16T11:54:54;4.57;;;2.20;;
10880;SDS011;5493;48.884;8.338;2024-02-16T11:57:20;3.85;;;1.98;;
10880;SDS011;5493;48.884;8.338;2024-02-16T11:59:48;4.88;;;1.95;;
10880;SDS011;5493;48.884;8.338;2024-02-16T12:02:17;4.53;;;2.22;;
10880;SDS011;5493;48.884;8.338;2024-02-16T12:04:46;2.47;;;1.65;;
10880;SDS011;5493;48.884;8.338;2024-02-16T12:07:12;3.40;;;2.08;;
10880;SDS011;5493;48.884;8.338;2024-02-16T12:09:39;4.85;;;2.25;;
10880;SDS011;5493;48.884;8.338;2024-02-16T12:12:06;2.70;;;1.65;;
10880;SDS011;5493;48.884;8.338;2024-02-16T12:14:33;1.95;;;1.40;;
10880;SDS011;5493;48.884;8.338;2024-02-16T12:17:03;4.78;;;1.90;;
10880;SDS011;5493;48.884;8.338;2024-02-16T12:19:31;2.42;;;1.42;;
10880;SDS011;5493;48.884;8.338;2024-02-16T12:21:57;5.13;;;1.60;;
10880;SDS011;5493;48.884;8.338;2024-02-16T12:24:24;3.70;;;1.57;;
10880;SDS011;5493;48.884;8.338;2024-02-16T12:26:51;3.53;;;2.00;;
10880;SDS011;5493;48.884;8.338;2024-02-16T12:29:17;6.65;;;2.35;;
10880;SDS011;5493;48.884;8.338;2024-02-16T12:31:44;3.70;;;2.00;;
10880;SDS011;5493;48.884;8.338;2024-02-16T12:34:13;5.95;;;2.00;;
10880;SDS011;5493;48.884;8.338;2024-02-16T12:36:41;3.60;;;2.20;;
10880;SDS011;5493;48.884;8.338;2024-02-16T12:39:08;4.40;;;2.00;;
10880;SDS011;5493;48.884;8.338;2024-02-16T12:41:37;3.28;;;1.65;;
10880;SDS011;5493;48.884;8.338;2024-02-16T12:44:04;3.80;;;2.13;;
10880;SDS011;5493;48.884;8.338;2024-02-16T12:46:31;6.60;;;3.27;;
10880;SDS011;5493;48.884;8.338;2024-02-16T12:48:58;5.65;;;2.22;;
10880;SDS011;5493;48.884;8.338;2024-02-16T12:51:24;7.45;;;3.30;;
10880;SDS011;5493;48.884;8.338;2024-02-16T12:53:52;4.32;;;2.65;;
10880;SDS011;5493;48.884;8.338;2024-02-16T12:56:19;3.85;;;2.00;;
10880;SDS011;5493;48.884;8.338;2024-02-16T12:58:46;4.40;;;2.33;;
10880;SDS011;5493;48.884;8.338;2024-02-16T13:01:13;2.95;;;1.95;;
10880;SDS011;5493;48.884;8.338;2024-02-16T13:03:42;4.93;;;2.20;;
10880;SDS011;5493;48.884;8.338;2024-02-16T13:06:09;3.88;;;2.25;;
10880;SDS011;5493;48.884;8.338;2024-02-16T13:08:36;6.18;;;2.30;;
10880;SDS011;5493;48.884;8.338;2024-02-16T13:11:04;2.90;;;1.60;;
10880;SDS011;5493;48.884;8.338;2024-02-16T13:13:31;3.60;;;2.03;;
10880;SDS011;5493;48.884;8.338;2024-02-16T13:15:58;4.45;;;2.60;;
10880;SDS011;5493;48.884;8.338;2024-02-16T13:18:24;4.68;;;2.22;;
10880;SDS011;5493;48.884;8.338;2024-02-16T13:20:51;5.65;;;2.33;;
10880;SDS011;5493;48.884;8.338;2024-02-16T13:23:18;5.32;;;2.85;;
10880;SDS011;5493;48.884;8.338;2024-02-16T13:25:44;6.73;;;2.10;;
10880;SDS011;5493;48.884;8.338;2024-02-16T13:28:13;3.15;;;1.83;;
10880;SDS011;5493;48.884;8.338;2024-02-16T13:30:41;5.05;;;1.80;;
10880;SDS011;5493;48.884;8.338;2024-02-16T13:33:08;2.33;;;1.90;;
10880;SDS011;5493;48.884;8.338;2024-02-16T13:35:34;3.67;;;1.58;;
10880;SDS011;5493;48.884;8.338;2024-02-16T13:38:02;5.00;;;1.70;;
10880;SDS011;5493;48.884;8.338;2024-02-16T13:40:28;2.87;;;2.00;;
10880;SDS011;5493;48.884;8.338;2024-02-16T13:42:55;3.65;;;1.95;;
10880;SDS011;5493;48.884;8.338;2024-02-16T13:45:28;3.05;;;1.60;;
10880;SDS011;5493;48.884;8.338;2024-02-16T13:47:55;4.78;;;2.00;;
10880;SDS011;5493;48.884;8.338;2024-02-16T13:50:23;6.75;;;1.80;;
10880;SDS011;5493;48.884;8.338;2024-02-16T13:52:50;3.35;;;1.63;;
10880;SDS011;5493;48.884;8.338;2024-02-16T13:55:16;3.92;;;1.98;;
10880;SDS011;5493;48.884;8.338;2024-02-16T13:57:43;4.22;;;2.05;;
10880;SDS011;5493;48.884;8.338;2024-02-16T14:00:10;5.25;;;2.33;;
10880;SDS011;5493;48.884;8.338;2024-02-16T14:02:38;10.40;;;3.78;;
10880;SDS011;5493;48.884;8.338;2024-02-16T14:05:05;2.90;;;1.63;;
10880;SDS011;5493;48.884;8.338;2024-02-16T14:07:32;3.28;;;2.00;;
10880;SDS011;5493;48.884;8.338;2024-02-16T14:09:59;2.40;;;1.77;;
10880;SDS011;5493;48.884;8.338;2024-02-16T14:12:25;3.00;;;1.52;;
10880;SDS011;5493;48.884;8.338;2024-02-16T14:14:51;4.43;;;2.08;;
10880;SDS011;5493;48.884;8.338;2024-02-16T14:17:18;2.00;;;1.30;;
10880;SDS011;5493;48.884;8.338;2024-02-16T14:19:46;6.00;;;2.15;;
10880;SDS011;5493;48.884;8.338;2024-02-16T14:22:13;2.72;;;1.60;;
10880;SDS011;5493;48.884;8.338;2024-02-16T14:24:39;6.30;;;2.03;;
10880;SDS011;5493;48.884;8.338;2024-02-16T14:27:06;4.47;;;1.70;;
10880;SDS011;5493;48.884;8.338;2024-02-16T14:29:32;2.65;;;2.03;;
10880;SDS011;5493;48.884;8.338;2024-02-16T14:31:59;4.40;;;1.83;;
10880;SDS011;5493;48.884;8.338;2024-02-16T14:34:26;3.03;;;1.85;;
10880;SDS011;5493;48.884;8.338;2024-02-16T14:36:54;2.60;;;1.93;;
10880;SDS011;5493;48.884;8.338;2024-02-16T14:39:20;3.27;;;1.97;;
10880;SDS011;5493;48.884;8.338;2024-02-16T14:41:50;7.73;;;2.23;;
10880;SDS011;5493;48.884;8.338;2024-02-16T14:44:17;5.28;;;2.30;;
10880;SDS011;5493;48.884;8.338;2024-02-16T14:46:46;1.98;;;1.77;;
10880;SDS011;5493;48.884;8.338;2024-02-16T14:49:13;3.87;;;1.80;;
10880;SDS011;5493;48.884;8.338;2024-02-16T14:51:45;4.80;;;2.10;;
10880;SDS011;5493;48.884;8.338;2024-02-16T14:54:14;3.17;;;1.95;;
10880;SDS011;5493;48.884;8.338;2024-02-16T14:56:40;3.47;;;2.13;;
10880;SDS011;5493;48.884;8.338;2024-02-16T14:59:07;3.22;;;2.17;;